Time;durP1;ratioP1;P1;durP2;ratioP2;P2;SDS_P1;SDS_P2;PMS_P1;PMS_P2;Temp;Humidity;BMP_temperature;BMP_pressure;BME280_temperature;BME280_humidity;BME280_pressure;Samples;Min_cycle;Max_cycle;Signal;HPM_P1;HPM_P2
2024/03/16 00:02:16;;;;;;;24.55;4.90;;;11.30;99.90;;;;;;5049472;28;20527;-72
2024/03/16 00:04:46;;;;;;;23.77;4.82;;;11.40;99.90;;;;;;5049334;28;20382;-72
2024/03/16 00:07:12;;;;;;;22.33;4.95;;;11.30;99.90;;;;;;5047506;28;20051;-72
2024/03/16 00:09:38;;;;;;;26.40;5.85;;;11.30;99.90;;;;;;5025413;28;20103;-72
2024/03/16 00:12:05;;;;;;;17.05;4.78;;;11.30;99.90;;;;;;5049629;28;20544;-72
2024/03/16 00:14:31;;;;;;;24.33;6.75;;;11.30;99.90;;;;;;5049853;28;20045;-72
2024/03/16 00:16:57;;;;;;;25.70;6.00;;;11.40;99.90;;;;;;5050255;28;20039;-73
2024/03/16 00:19:23;;;;;;;20.65;5.45;;;11.30;99.90;;;;;;5049861;28;20029;-74
2024/03/16 00:21:49;;;;;;;27.58;6.00;;;11.40;99.90;;;;;;5049696;28;20044;-74
2024/03/16 00:24:14;;;;;;;26.05;6.28;;;11.30;99.90;;;;;;5049591;28;20048;-73
2024/03/16 00:26:40;;;;;;;28.48;6.78;;;11.30;99.90;;;;;;5051254;28;20053;-73
2024/03/16 00:29:07;;;;;;;28.20;7.30;;;11.40;99.90;;;;;;5034476;28;20055;-73
2024/03/16 00:31:36;;;;;;;33.75;8.82;;;11.30;99.90;;;;;;5053457;28;20118;-73
2024/03/16 00:34:05;;;;;;;32.17;7.78;;;11.30;99.90;;;;;;5053786;28;20124;-74
2024/03/16 00:36:30;;;;;;;28.95;7.72;;;11.30;99.90;;;;;;5053687;28;20045;-72
2024/03/16 00:38:56;;;;;;;24.55;7.35;;;11.30;99.90;;;;;;5054710;28;20089;-72
2024/03/16 00:41:23;;;;;;;35.75;8.35;;;11.30;99.90;;;;;;5053927;28;20047;-72
2024/03/16 00:43:49;;;;;;;29.90;8.90;;;11.20;99.90;;;;;;5036413;28;20044;-72
2024/03/16 00:46:14;;;;;;;33.58;8.20;;;11.10;99.90;;;;;;5054986;28;20120;-72
2024/03/16 00:48:40;;;;;;;33.63;9.15;;;11.20;99.90;;;;;;5053361;28;20037;-72
2024/03/16 00:51:06;;;;;;;32.00;9.20;;;11.10;99.90;;;;;;5053440;28;20036;-72
2024/03/16 00:53:32;;;;;;;33.72;8.93;;;11.10;99.90;;;;;;5052730;28;20075;-72
2024/03/16 00:55:59;;;;;;;38.22;9.52;;;11.10;99.90;;;;;;5036578;28;20068;-72
2024/03/16 00:58:24;;;;;;;33.30;9.80;;;11.10;99.90;;;;;;5054543;28;20053;-72
2024/03/16 01:00:51;;;;;;;31.75;10.00;;;11.10;99.90;;;;;;5053248;28;20040;-72
2024/03/16 01:03:17;;;;;;;34.80;10.23;;;10.90;99.90;;;;;;5041483;28;20520;-74
2024/03/16 01:05:44;;;;;;;31.75;11.18;;;10.90;99.90;;;;;;5054503;28;20037;-74
2024/03/16 01:08:10;;;;;;;32.65;10.60;;;10.90;99.90;;;;;;5054506;28;20398;-74
2024/03/16 01:10:35;;;;;;;37.42;10.93;;;11.00;99.90;;;;;;5054137;28;20041;-74
2024/03/16 01:13:01;;;;;;;44.83;10.85;;;10.90;99.90;;;;;;5053797;28;20045;-74
2024/03/16 01:15:26;;;;;;;36.55;11.40;;;10.80;99.90;;;;;;5052762;28;20045;-72
2024/03/16 01:17:52;;;;;;;33.30;11.85;;;10.90;99.90;;;;;;5052942;28;20040;-72
2024/03/16 01:20:18;;;;;;;41.38;13.32;;;10.80;99.90;;;;;;5052773;28;20527;-72
2024/03/16 01:22:43;;;;;;;56.80;11.95;;;10.90;99.90;;;;;;5052587;28;20040;-72
2024/03/16 01:25:09;;;;;;;46.88;14.25;;;10.80;99.90;;;;;;5052456;28;20072;-75
2024/03/16 01:27:35;;;;;;;42.35;12.00;;;10.70;99.90;;;;;;5053997;28;20076;-72
2024/03/16 01:30:02;;;;;;;36.05;11.93;;;10.90;99.90;;;;;;5053743;28;20047;-72
2024/03/16 01:32:28;;;;;;;47.78;12.95;;;10.90;99.90;;;;;;5052523;28;20079;-72
2024/03/16 01:34:53;;;;;;;43.45;12.90;;;10.80;99.90;;;;;;5052290;28;20501;-72
2024/03/16 01:37:20;;;;;;;51.22;13.93;;;10.90;99.90;;;;;;5052605;28;20029;-72
2024/03/16 01:39:45;;;;;;;41.50;12.48;;;10.80;99.90;;;;;;5053533;28;20041;-72
2024/03/16 01:42:12;;;;;;;44.88;12.23;;;10.70;99.90;;;;;;5051670;28;20071;-72
2024/03/16 01:44:38;;;;;;;31.95;10.65;;;10.70;99.90;;;;;;5053648;28;20072;-72
2024/03/16 01:47:09;;;;;;;40.63;12.57;;;10.70;99.90;;;;;;5052892;28;20045;-72
2024/03/16 01:49:35;;;;;;;39.92;11.27;;;10.70;99.90;;;;;;5051996;28;20037;-72
2024/03/16 01:52:01;;;;;;;43.72;12.30;;;10.80;99.90;;;;;;5052897;28;20374;-72
2024/03/16 01:54:26;;;;;;;39.35;10.73;;;10.80;99.90;;;;;;5052024;28;20048;-72
2024/03/16 01:56:52;;;;;;;33.58;8.90;;;10.60;99.90;;;;;;5053353;28;20823;-72
2024/03/16 01:59:18;;;;;;;27.77;8.43;;;10.70;99.90;;;;;;5052054;28;20151;-72
2024/03/16 02:01:44;;;;;;;27.30;7.82;;;10.60;99.90;;;;;;5053139;28;20047;-72
2024/03/16 02:04:10;;;;;;;23.25;7.18;;;10.50;99.90;;;;;;5053315;28;20067;-72
2024/03/16 02:06:36;;;;;;;19.80;7.20;;;10.50;99.90;;;;;;5051977;28;20041;-72
2024/03/16 02:09:02;;;;;;;18.58;7.22;;;10.50;99.90;;;;;;5035107;28;20052;-73
2024/03/16 02:11:28;;;;;;;23.73;7.22;;;10.30;99.90;;;;;;5052837;28;20040;-72
2024/03/16 02:13:53;;;;;;;19.00;5.90;;;10.30;99.90;;;;;;5051664;28;20079;-72
2024/03/16 02:16:19;;;;;;;16.92;5.03;;;10.30;99.90;;;;;;5053406;28;20037;-72
2024/03/16 02:18:45;;;;;;;15.07;5.07;;;10.20;99.90;;;;;;5053106;28;20175;-73
2024/03/16 02:21:11;;;;;;;9.68;4.50;;;10.10;99.90;;;;;;5051986;28;20650;-73
2024/03/16 02:23:37;;;;;;;9.90;5.13;;;10.00;99.90;;;;;;5051044;28;20386;-73
2024/03/16 02:26:04;;;;;;;11.43;5.53;;;9.90;99.90;;;;;;5051938;28;20036;-73
2024/03/16 02:28:30;;;;;;;7.55;3.45;;;9.90;99.90;;;;;;5053225;28;20041;-73
2024/03/16 02:30:56;;;;;;;7.47;2.78;;;9.70;99.90;;;;;;5051492;28;20116;-73
2024/03/16 02:33:21;;;;;;;3.60;2.00;;;9.70;99.90;;;;;;5050818;28;20378;-73
2024/03/16 02:35:47;;;;;;;3.50;1.35;;;9.70;99.90;;;;;;5051516;28;20041;-72
2024/03/16 02:38:13;;;;;;;2.40;1.08;;;9.50;99.90;;;;;;5051776;28;20036;-73
2024/03/16 02:40:39;;;;;;;4.30;1.77;;;9.30;99.90;;;;;;5051188;28;20052;-73
2024/03/16 02:43:04;;;;;;;4.45;1.20;;;9.20;99.90;;;;;;5052097;28;20053;-73
2024/03/16 02:45:31;;;;;;;4.15;1.48;;;9.20;99.90;;;;;;5051129;28;20041;-73
2024/03/16 02:47:58;;;;;;;2.78;1.20;;;9.10;99.90;;;;;;5051329;28;20072;-73
2024/03/16 02:50:23;;;;;;;4.53;1.30;;;9.10;99.90;;;;;;5034530;28;20582;-73
2024/03/16 02:52:49;;;;;;;3.42;1.50;;;9.10;99.90;;;;;;5051054;28;20043;-73
2024/03/16 02:55:14;;;;;;;4.00;1.45;;;9.00;99.90;;;;;;5052131;28;20041;-73
2024/03/16 02:57:40;;;;;;;5.75;1.33;;;9.10;99.90;;;;;;5052563;28;20106;-73
2024/03/16 03:00:12;;;;;;;4.75;1.35;;;8.90;99.90;;;;;;5050829;28;20047;-73
2024/03/16 03:02:38;;;;;;;7.50;1.75;;;8.90;99.90;;;;;;5050477;28;20119;-73
2024/03/16 03:05:04;;;;;;;4.85;1.58;;;8.90;99.90;;;;;;5051835;28;20562;-73
2024/03/16 03:07:30;;;;;;;8.32;1.73;;;8.90;99.90;;;;;;5052124;28;20408;-73
2024/03/16 03:09:56;;;;;;;4.00;1.40;;;8.80;99.90;;;;;;5050703;28;20049;-73
2024/03/16 03:12:24;;;;;;;4.70;1.35;;;8.90;99.90;;;;;;5051622;28;20071;-73
2024/03/16 03:14:50;;;;;;;4.75;1.52;;;8.90;99.90;;;;;;5050507;28;20052;-73
2024/03/16 03:17:16;;;;;;;4.28;1.23;;;8.90;99.90;;;;;;5052055;28;20037;-73
2024/03/16 03:19:42;;;;;;;4.20;1.10;;;8.80;99.90;;;;;;5050274;28;20056;-73
2024/03/16 03:22:08;;;;;;;4.90;1.20;;;8.70;99.90;;;;;;5051232;28;20083;-73
2024/03/16 03:24:34;;;;;;;4.60;1.00;;;8.70;99.90;;;;;;5051882;28;20064;-73
2024/03/16 03:26:59;;;;;;;5.47;1.60;;;8.70;99.90;;;;;;5052038;28;20144;-73
2024/03/16 03:29:25;;;;;;;3.90;1.20;;;8.60;99.90;;;;;;5050407;28;20412;-73
2024/03/16 03:31:51;;;;;;;7.13;2.17;;;8.70;99.90;;;;;;5051481;28;20116;-73
2024/03/16 03:34:16;;;;;;;3.53;1.30;;;8.60;99.90;;;;;;5050169;28;20048;-73
2024/03/16 03:36:44;;;;;;;5.88;1.33;;;8.70;99.90;;;;;;5050233;28;20037;-73
2024/03/16 03:39:18;;;;;;;4.28;0.98;;;8.60;99.90;;;;;;5051581;28;20413;-73
2024/03/16 03:41:44;;;;;;;7.60;1.52;;;8.70;99.90;;;;;;5051206;28;20037;-73
2024/03/16 03:44:23;;;;;;;3.85;1.52;;;8.60;99.90;;;;;;5050269;28;20051;-73
2024/03/16 03:46:50;;;;;;;3.67;1.80;;;8.40;99.90;;;;;;5050445;28;20150;-73
2024/03/16 03:49:50;;;;;;;6.38;1.60;;;8.40;99.90;;;;;;5049938;28;20048;-73
2024/03/16 03:52:05;;;;;;;8.90;2.08;;;8.50;99.90;;;;;;5050617;28;20141;-73
2024/03/16 03:54:31;;;;;;;6.40;1.90;;;8.50;99.90;;;;;;5049975;28;20078;-73
2024/03/16 03:56:57;;;;;;;5.50;1.95;;;8.40;99.90;;;;;;5051467;28;20040;-73
2024/03/16 03:59:23;;;;;;;9.70;3.22;;;8.40;99.90;;;;;;5051146;28;20056;-73
2024/03/16 04:01:48;;;;;;;8.25;4.40;;;8.30;99.90;;;;;;5032986;28;20693;-73
2024/03/16 04:04:14;;;;;;;14.25;2.70;;;8.20;99.90;;;;;;5049983;28;20087;-73
2024/03/16 04:06:44;;;;;;;10.30;3.30;;;8.30;99.90;;;;;;5033625;28;20033;-73
2024/03/16 04:09:11;;;;;;;11.60;3.45;;;8.30;99.90;;;;;;5051137;28;20051;-73
2024/03/16 04:11:38;;;;;;;12.50;3.22;;;8.20;99.90;;;;;;5032884;28;20077;-73
2024/03/16 04:14:04;;;;;;;8.80;2.63;;;8.00;99.90;;;;;;5049628;28;20048;-73
2024/03/16 04:16:29;;;;;;;17.92;4.13;;;8.10;99.90;;;;;;5051307;28;20037;-73
2024/03/16 04:18:55;;;;;;;11.05;3.17;;;8.10;99.90;;;;;;5049916;28;20040;-73
2024/03/16 04:21:21;;;;;;;17.77;3.42;;;8.00;99.90;;;;;;5049968;28;20048;-73
2024/03/16 04:23:48;;;;;;;19.15;4.38;;;8.00;99.90;;;;;;5032671;28;20041;-73
2024/03/16 04:26:13;;;;;;;17.88;3.38;;;8.10;99.90;;;;;;5049999;28;20040;-73
2024/03/16 04:28:39;;;;;;;11.55;2.90;;;8.10;99.90;;;;;;5049394;28;20408;-73
2024/03/16 04:31:05;;;;;;;15.35;3.22;;;8.10;99.90;;;;;;5051264;28;20064;-72
2024/03/16 04:33:30;;;;;;;19.70;3.00;;;7.80;99.90;;;;;;5050619;28;20124;-72
2024/03/16 04:35:56;;;;;;;18.75;3.10;;;8.00;99.90;;;;;;5049770;28;20040;-73
2024/03/16 04:38:22;;;;;;;14.13;3.28;;;8.00;99.90;;;;;;5049730;28;20029;-73
2024/03/16 04:40:48;;;;;;;14.85;3.75;;;7.90;99.90;;;;;;5050908;28;20048;-73
2024/03/16 04:43:16;;;;;;;16.60;3.72;;;7.80;99.90;;;;;;5049428;28;20040;-73
2024/03/16 04:45:46;;;;;;;14.10;4.50;;;7.80;99.90;;;;;;5049518;28;20117;-73
2024/03/16 04:48:11;;;;;;;19.70;4.32;;;7.90;99.90;;;;;;5051210;28;20098;-73
2024/03/16 04:50:37;;;;;;;15.95;4.25;;;7.70;99.90;;;;;;5049534;28;20040;-73
2024/03/16 04:53:03;;;;;;;16.27;3.72;;;7.80;99.90;;;;;;5049446;28;20045;-73
2024/03/16 04:55:29;;;;;;;16.63;4.45;;;7.70;99.90;;;;;;5049283;28;20068;-73
2024/03/16 04:57:54;;;;;;;17.33;2.75;;;7.70;99.90;;;;;;5033057;28;20041;-73
2024/03/16 05:00:20;;;;;;;17.48;3.25;;;7.70;99.90;;;;;;5049311;28;20523;-73
2024/03/16 05:02:46;;;;;;;17.33;3.50;;;7.80;99.90;;;;;;5032403;28;20451;-73
2024/03/16 05:05:11;;;;;;;14.63;3.33;;;7.60;99.90;;;;;;5050321;28;20041;-73
2024/03/16 05:07:37;;;;;;;17.33;2.92;;;7.70;99.90;;;;;;5050789;28;20046;-73
2024/03/16 05:10:04;;;;;;;14.18;2.70;;;7.60;99.90;;;;;;5049344;28;20041;-73
2024/03/16 05:12:30;;;;;;;10.93;2.08;;;7.60;99.90;;;;;;5032431;28;20048;-73
2024/03/16 05:14:55;;;;;;;4.22;1.52;;;7.60;99.90;;;;;;5032743;28;20045;-73
2024/03/16 05:17:21;;;;;;;8.75;1.58;;;7.50;99.90;;;;;;5054399;28;20033;-73
2024/03/16 05:19:48;;;;;;;10.52;1.77;;;7.50;99.90;;;;;;5053051;28;20524;-73
2024/03/16 05:22:13;;;;;;;10.32;2.03;;;7.50;99.90;;;;;;5035704;28;20068;-73
2024/03/16 05:24:39;;;;;;;10.48;2.28;;;7.40;99.90;;;;;;5052664;28;20068;-73
2024/03/16 05:27:07;;;;;;;13.13;2.70;;;7.40;99.90;;;;;;5053868;28;20119;-72
2024/03/16 05:29:33;;;;;;;11.57;1.88;;;7.40;99.90;;;;;;5052796;28;20459;-72
2024/03/16 05:31:59;;;;;;;6.10;1.70;;;7.40;99.90;;;;;;5052225;28;20045;-72
2024/03/16 05:34:25;;;;;;;10.73;1.48;;;7.40;99.90;;;;;;5052667;28;20049;-72
2024/03/16 05:36:51;;;;;;;18.80;2.60;;;7.30;99.90;;;;;;5052573;28;20064;-72
2024/03/16 05:39:17;;;;;;;12.65;2.13;;;7.40;99.90;;;;;;5052392;28;20068;-72
2024/03/16 05:41:43;;;;;;;10.05;1.90;;;7.30;99.90;;;;;;5051943;28;20041;-72
2024/03/16 05:44:10;;;;;;;7.35;1.55;;;7.40;99.90;;;;;;5052653;28;20047;-72
2024/03/16 05:46:35;;;;;;;9.23;1.73;;;7.40;99.90;;;;;;5052450;28;20398;-72
2024/03/16 05:49:01;;;;;;;13.40;1.88;;;7.30;99.90;;;;;;5052171;28;20047;-72
2024/03/16 05:51:28;;;;;;;8.68;3.45;;;7.40;99.90;;;;;;5052285;28;20129;-72
2024/03/16 05:53:54;;;;;;;7.63;1.75;;;7.40;99.90;;;;;;5053320;28;20067;-72
2024/03/16 05:56:21;;;;;;;16.70;2.33;;;7.40;99.90;;;;;;5035087;28;20083;-72
2024/03/16 05:58:46;;;;;;;14.07;2.47;;;7.40;99.90;;;;;;5051604;28;20071;-72
2024/03/16 06:01:12;;;;;;;7.40;2.25;;;7.40;99.90;;;;;;5051247;28;20068;-72
2024/03/16 06:03:37;;;;;;;12.40;2.85;;;7.50;99.90;;;;;;5052495;28;20072;-72
2024/03/16 06:06:03;;;;;;;9.90;1.52;;;7.50;99.90;;;;;;5053269;28;20435;-72
2024/03/16 06:08:29;;;;;;;8.43;1.60;;;7.40;99.90;;;;;;5052189;28;20029;-72
2024/03/16 06:10:55;;;;;;;11.77;2.20;;;7.50;99.90;;;;;;5051959;28;20250;-72
2024/03/16 06:13:21;;;;;;;9.77;1.90;;;7.50;99.90;;;;;;5051937;28;20040;-72
2024/03/16 06:15:47;;;;;;;7.57;2.00;;;7.50;99.90;;;;;;5052992;28;20069;-72
2024/03/16 06:18:13;;;;;;;14.98;2.20;;;7.50;99.90;;;;;;5053163;28;20044;-72
2024/03/16 06:20:38;;;;;;;12.32;2.45;;;7.50;99.90;;;;;;5052897;28;20041;-72
2024/03/16 06:23:06;;;;;;;13.75;2.35;;;7.50;99.90;;;;;;5051359;28;20708;-72
2024/03/16 06:25:39;;;;;;;9.85;2.10;;;7.50;99.90;;;;;;5051470;28;20049;-72
2024/03/16 06:28:05;;;;;;;12.27;1.83;;;7.50;99.90;;;;;;5051909;28;20548;-72
2024/03/16 06:30:31;;;;;;;10.63;2.85;;;7.50;99.90;;;;;;5051463;28;20047;-72
2024/03/16 06:33:09;;;;;;;9.77;1.65;;;7.50;99.90;;;;;;5034596;28;20041;-72
2024/03/16 06:35:41;;;;;;;8.07;2.35;;;7.50;99.90;;;;;;5052631;28;20048;-72
2024/03/16 06:38:07;;;;;;;4.43;2.03;;;7.60;99.90;;;;;;5051533;28;20037;-72
2024/03/16 06:40:33;;;;;;;9.40;1.70;;;7.50;99.90;;;;;;5051234;28;20144;-72
2024/03/16 06:42:58;;;;;;;9.05;1.73;;;7.50;99.90;;;;;;5051025;28;20037;-72
2024/03/16 06:45:24;;;;;;;9.02;1.60;;;7.50;99.90;;;;;;5051438;28;20044;-72
2024/03/16 06:47:49;;;;;;;8.05;1.80;;;7.50;99.90;;;;;;5051459;28;20416;-72
2024/03/16 06:50:15;;;;;;;7.65;1.80;;;7.50;99.90;;;;;;5051058;28;20462;-72
2024/03/16 06:52:41;;;;;;;6.57;1.40;;;7.60;99.90;;;;;;5050752;28;20041;-72
2024/03/16 06:55:07;;;;;;;4.90;1.83;;;7.50;99.90;;;;;;5051096;28;20036;-72
2024/03/16 06:57:33;;;;;;;7.88;1.67;;;7.50;99.90;;;;;;5052539;28;20045;-72
2024/03/16 06:59:59;;;;;;;4.32;1.10;;;7.60;99.90;;;;;;5050908;28;20037;-71
2024/03/16 07:02:25;;;;;;;10.88;1.60;;;7.60;99.90;;;;;;5050679;28;20048;-72
2024/03/16 07:04:51;;;;;;;7.38;1.20;;;7.50;99.90;;;;;;5050942;28;20502;-72
2024/03/16 07:07:16;;;;;;;7.95;1.88;;;7.50;99.90;;;;;;5051131;28;20412;-72
2024/03/16 07:09:42;;;;;;;3.47;1.35;;;7.50;99.90;;;;;;5050785;28;20127;-72
2024/03/16 07:12:08;;;;;;;4.15;1.27;;;7.50;99.90;;;;;;5050411;28;20377;-72
2024/03/16 07:14:33;;;;;;;4.85;1.25;;;7.50;99.90;;;;;;5050587;28;20190;-72
2024/03/16 07:17:00;;;;;;;5.85;2.05;;;7.60;99.90;;;;;;5051091;28;20059;-72
2024/03/16 07:19:25;;;;;;;9.73;1.60;;;7.50;99.90;;;;;;5050541;28;20191;-72
2024/03/16 07:21:51;;;;;;;5.68;1.17;;;7.60;99.90;;;;;;5051605;28;20041;-72
2024/03/16 07:24:17;;;;;;;4.72;1.38;;;7.60;99.90;;;;;;5050782;28;20087;-72
2024/03/16 07:26:43;;;;;;;4.95;2.35;;;7.60;99.90;;;;;;5050665;28;20036;-72
2024/03/16 07:29:10;;;;;;;4.30;0.93;;;7.60;99.90;;;;;;5051679;28;20386;-72
2024/03/16 07:31:36;;;;;;;7.65;1.20;;;7.70;99.90;;;;;;5051396;28;20037;-72
2024/03/16 07:34:03;;;;;;;3.97;1.00;;;7.70;99.90;;;;;;5050556;28;20106;-72
2024/03/16 07:36:29;;;;;;;7.35;1.40;;;7.70;99.90;;;;;;5050711;28;20094;-71
2024/03/16 07:38:56;;;;;;;6.65;1.13;;;7.70;99.90;;;;;;5049723;28;20040;-71
2024/03/16 07:41:23;;;;;;;5.43;1.23;;;7.70;99.90;;;;;;5050638;28;20052;-71
2024/03/16 07:43:49;;;;;;;10.27;1.98;;;7.70;99.90;;;;;;5051260;28;20071;-71
2024/03/16 07:46:15;;;;;;;5.40;1.30;;;7.80;99.90;;;;;;5051598;28;20052;-71
2024/03/16 07:48:41;;;;;;;5.35;1.27;;;7.80;99.90;;;;;;5051182;28;20048;-71
2024/03/16 07:51:06;;;;;;;3.03;0.88;;;7.70;99.90;;;;;;5051708;28;20033;-72
2024/03/16 07:53:32;;;;;;;6.25;1.20;;;7.80;99.90;;;;;;5051334;28;20548;-72
2024/03/16 07:55:58;;;;;;;4.38;1.92;;;7.80;99.90;;;;;;5051488;28;20056;-71
2024/03/16 07:58:24;;;;;;;10.00;1.45;;;7.90;99.90;;;;;;5050189;28;20116;-72
2024/03/16 08:00:50;;;;;;;10.13;1.20;;;7.90;99.90;;;;;;5049975;28;20120;-72
2024/03/16 08:03:19;;;;;;;4.88;1.10;;;7.90;99.90;;;;;;5033188;28;20187;-72
2024/03/16 08:05:45;;;;;;;7.38;1.38;;;8.00;99.90;;;;;;5050143;28;20045;-72
2024/03/16 08:08:11;;;;;;;8.73;1.23;;;8.00;99.90;;;;;;5051411;28;20049;-72
2024/03/16 08:10:36;;;;;;;7.03;1.05;;;8.00;99.90;;;;;;5051236;28;20127;-72
2024/03/16 08:13:02;;;;;;;10.18;2.47;;;8.00;99.90;;;;;;5050919;28;20119;-72
2024/03/16 08:15:28;;;;;;;8.70;1.42;;;8.00;99.90;;;;;;5049993;28;20094;-72
2024/03/16 08:17:56;;;;;;;6.20;1.98;;;8.00;99.90;;;;;;5050114;28;20552;-72
2024/03/16 08:20:22;;;;;;;10.85;2.30;;;8.10;99.90;;;;;;5049724;28;20049;-72
2024/03/16 08:22:53;;;;;;;2.95;1.00;;;8.10;99.90;;;;;;5050865;28;20036;-72
2024/03/16 08:25:22;;;;;;;10.15;2.53;;;8.10;99.90;;;;;;5049711;28;20073;-72
2024/03/16 08:27:48;;;;;;;4.85;1.08;;;8.20;99.90;;;;;;5051188;28;20416;-72
2024/03/16 08:30:14;;;;;;;4.72;1.33;;;8.30;99.90;;;;;;5050769;28;20036;-72
2024/03/16 08:32:40;;;;;;;8.82;1.90;;;8.30;99.90;;;;;;5032169;28;20048;-72
2024/03/16 08:35:06;;;;;;;7.35;1.02;;;8.40;99.90;;;;;;5050441;28;20127;-72
2024/03/16 08:37:32;;;;;;;11.38;2.05;;;8.40;99.90;;;;;;5052711;28;20033;-72
2024/03/16 08:39:58;;;;;;;8.25;1.60;;;8.50;99.90;;;;;;5050705;28;20067;-72
2024/03/16 08:42:24;;;;;;;5.97;1.33;;;8.60;99.90;;;;;;5049907;28;20033;-72
2024/03/16 08:44:49;;;;;;;9.15;1.40;;;8.60;99.90;;;;;;5049449;28;20049;-72
2024/03/16 08:47:15;;;;;;;10.38;1.67;;;8.50;99.90;;;;;;5050568;28;20133;-72
2024/03/16 08:49:41;;;;;;;7.90;1.27;;;8.50;99.90;;;;;;5050031;28;20076;-72
2024/03/16 08:52:06;;;;;;;4.85;1.58;;;8.50;99.90;;;;;;5052939;28;20076;-71
2024/03/16 08:54:32;;;;;;;5.00;1.00;;;8.50;99.90;;;;;;5053445;28;20052;-72
2024/03/16 08:56:59;;;;;;;10.88;1.85;;;8.40;99.90;;;;;;5036642;28;20036;-72
2024/03/16 08:59:25;;;;;;;6.93;1.30;;;8.50;99.90;;;;;;5052723;28;20127;-72
2024/03/16 09:01:51;;;;;;;5.45;1.33;;;8.50;99.90;;;;;;5053723;28;20177;-72
2024/03/16 09:04:16;;;;;;;6.40;1.30;;;8.70;99.90;;;;;;5053192;28;20044;-72
2024/03/16 09:06:42;;;;;;;6.82;1.77;;;8.90;99.90;;;;;;5052975;28;20078;-72
2024/03/16 09:09:10;;;;;;;10.55;3.05;;;8.90;99.90;;;;;;5052911;28;20055;-72
2024/03/16 09:11:38;;;;;;;7.03;2.50;;;9.00;99.90;;;;;;5052092;28;20397;-73
2024/03/16 09:14:05;;;;;;;8.02;1.40;;;8.90;99.90;;;;;;5052225;28;20112;-72
2024/03/16 09:16:36;;;;;;;12.68;2.85;;;8.80;99.90;;;;;;5052476;28;20090;-72
2024/03/16 09:19:02;;;;;;;9.35;1.45;;;8.80;99.90;;;;;;5050128;28;20108;-72
2024/03/16 09:21:28;;;;;;;9.65;1.50;;;8.80;99.90;;;;;;5052791;28;20455;-72
2024/03/16 09:23:54;;;;;;;8.73;1.42;;;8.80;99.90;;;;;;5053654;28;20095;-72
2024/03/16 09:26:20;;;;;;;5.53;1.10;;;8.90;99.90;;;;;;5052196;28;20033;-72
2024/03/16 09:28:46;;;;;;;5.10;1.40;;;8.90;99.90;;;;;;5053528;28;20098;-71
2024/03/16 09:31:11;;;;;;;4.93;0.90;;;9.00;99.90;;;;;;5052604;28;20058;-71
2024/03/16 09:33:37;;;;;;;5.07;0.93;;;9.10;99.90;;;;;;5051542;28;20468;-71
2024/03/16 09:36:03;;;;;;;8.23;1.33;;;9.20;99.90;;;;;;5052589;28;20049;-71
2024/03/16 09:38:29;;;;;;;4.90;0.93;;;9.10;99.90;;;;;;5052380;28;20044;-71
2024/03/16 09:40:57;;;;;;;10.07;1.45;;;9.10;99.90;;;;;;5053354;28;20045;-72
2024/03/16 09:43:23;;;;;;;7.30;1.35;;;9.20;99.90;;;;;;5035341;28;20041;-72
2024/03/16 09:45:49;;;;;;;5.82;1.05;;;9.30;99.90;;;;;;5052174;28;20045;-71
2024/03/16 09:48:16;;;;;;;8.18;1.27;;;9.40;99.90;;;;;;5053688;28;20048;-72
2024/03/16 09:50:49;;;;;;;4.30;0.75;;;9.40;99.90;;;;;;5052732;28;20045;-72
2024/03/16 09:53:38;;;;;;;3.83;0.73;;;9.40;99.90;;;;;;5051015;28;20041;-72
2024/03/16 09:56:11;;;;;;;4.18;0.60;;;9.40;99.90;;;;;;5053522;28;20037;-72
2024/03/16 09:58:37;;;;;;;3.80;0.77;;;9.60;99.90;;;;;;5068963;28;20033;-72
2024/03/16 10:01:05;;;;;;;4.93;1.23;;;9.70;99.90;;;;;;5067589;28;20056;-72
2024/03/16 10:03:34;;;;;;;7.13;1.02;;;9.80;99.90;;;;;;5050872;28;20041;-72
2024/03/16 10:06:04;;;;;;;5.85;0.80;;;9.90;99.90;;;;;;5051531;28;20037;-72
2024/03/16 10:08:31;;;;;;;5.13;0.98;;;9.90;99.90;;;;;;5068331;28;20507;-72
2024/03/16 10:11:13;;;;;;;7.10;0.80;;;10.20;99.90;;;;;;5051525;28;20171;-72
2024/03/16 10:14:04;;;;;;;5.30;0.82;;;10.40;99.90;;;;;;5048887;28;20037;-72
2024/03/16 10:16:33;;;;;;;4.22;0.80;;;10.50;99.90;;;;;;5068171;28;20056;-72
2024/03/16 10:18:58;;;;;;;6.03;0.95;;;10.40;99.90;;;;;;5068166;28;20067;-72
2024/03/16 10:21:27;;;;;;;3.35;0.85;;;10.40;99.90;;;;;;5068180;28;20709;-72
2024/03/16 10:23:53;;;;;;;5.30;0.82;;;10.20;99.90;;;;;;5050887;28;20048;-72
2024/03/16 10:26:19;;;;;;;3.55;0.77;;;10.10;99.90;;;;;;5067547;28;20124;-72
2024/03/16 10:28:46;;;;;;;13.55;1.38;;;10.00;99.90;;;;;;5050875;28;20120;-72
2024/03/16 10:31:12;;;;;;;6.93;0.93;;;10.00;99.90;;;;;;5051410;28;20053;-72
2024/03/16 10:33:39;;;;;;;4.07;0.73;;;10.00;99.90;;;;;;5065817;28;20044;-72
2024/03/16 10:36:06;;;;;;;7.45;1.88;;;10.00;99.90;;;;;;5068553;28;20416;-72
2024/03/16 10:38:33;;;;;;;7.13;1.17;;;10.00;99.90;;;;;;5068391;28;20072;-72
2024/03/16 10:41:04;;;;;;;7.72;1.42;;;10.20;99.90;;;;;;5068348;28;20037;-72
2024/03/16 10:43:31;;;;;;;7.60;1.25;;;10.10;99.90;;;;;;5051435;28;20041;-72
2024/03/16 10:45:58;;;;;;;8.02;1.52;;;10.00;99.90;;;;;;5052785;28;20126;-71
2024/03/16 10:48:24;;;;;;;5.20;1.00;;;9.90;99.90;;;;;;5051004;28;20029;-71
2024/03/16 10:50:51;;;;;;;6.68;1.10;;;9.80;99.90;;;;;;5050277;28;20513;-71
2024/03/16 10:53:18;;;;;;;9.48;1.30;;;9.80;99.90;;;;;;5050229;28;20091;-71
2024/03/16 10:55:49;;;;;;;6.60;0.80;;;10.00;99.90;;;;;;5033801;28;20045;-71
2024/03/16 10:58:27;;;;;;;4.70;0.95;;;10.10;99.90;;;;;;5051405;28;20044;-72
2024/03/16 11:01:07;;;;;;;6.07;1.75;;;10.10;99.90;;;;;;5050972;28;20041;-71
2024/03/16 11:03:38;;;;;;;2.72;1.05;;;10.10;99.90;;;;;;5050928;28;20405;-71
2024/03/16 11:06:09;;;;;;;4.55;1.80;;;10.00;99.90;;;;;;5050874;28;20084;-72
2024/03/16 11:08:51;;;;;;;4.63;1.52;;;10.00;99.90;;;;;;5050982;28;20056;-69
2024/03/16 11:11:24;;;;;;;8.20;1.15;;;10.10;99.90;;;;;;5052282;28;20394;-69
2024/03/16 11:13:58;;;;;;;5.97;1.63;;;10.20;99.90;;;;;;5051023;28;20091;-69
2024/03/16 11:16:33;;;;;;;8.00;1.88;;;10.10;99.90;;;;;;5052130;28;20053;-69
2024/03/16 11:19:00;;;;;;;6.65;1.42;;;10.00;99.90;;;;;;5050764;28;20049;-70
2024/03/16 11:21:28;;;;;;;6.50;1.27;;;9.90;99.90;;;;;;5052079;28;20528;-69
2024/03/16 11:23:54;;;;;;;6.60;1.23;;;9.80;99.90;;;;;;5050176;28;20044;-69
2024/03/16 11:26:40;;;;;;;5.85;1.10;;;9.90;99.90;;;;;;5073918;22;20060;-74
2024/03/16 11:29:15;;;;;;;6.97;1.42;;;10.10;99.90;;;;;;5048699;28;20472;-74
2024/03/16 11:31:46;;;;;;;6.65;1.33;;;10.20;99.90;;;;;;5083852;28;20037;-74
2024/03/16 11:34:13;;;;;;;4.35;2.45;;;10.10;99.90;;;;;;5051867;28;20088;-74
2024/03/16 11:36:49;;;;;;;6.63;1.20;;;10.00;99.90;;;;;;5050440;28;20045;-74
2024/03/16 11:39:26;;;;;;;7.90;1.60;;;10.10;99.90;;;;;;5049319;28;20045;-74
2024/03/16 11:41:58;;;;;;;6.68;1.25;;;10.40;99.90;;;;;;5049819;28;20059;-74
2024/03/16 11:44:24;;;;;;;5.82;1.38;;;10.50;99.90;;;;;;5033042;28;20086;-73
2024/03/16 11:46:52;;;;;;;4.35;1.58;;;10.60;99.90;;;;;;5049973;28;20045;-74
2024/03/16 11:49:18;;;;;;;6.68;1.00;;;10.70;99.90;;;;;;5058385;28;20044;-78
2024/03/16 11:51:48;;;;;;;5.82;1.27;;;10.70;99.90;;;;;;5049783;28;20044;-74
2024/03/16 11:54:17;;;;;;;5.75;1.77;;;11.00;99.90;;;;;;5050675;28;20091;-74
2024/03/16 11:56:44;;;;;;;9.18;1.20;;;11.00;99.90;;;;;;5050234;28;20389;-75
2024/03/16 11:59:14;;;;;;;6.80;2.33;;;11.10;99.90;;;;;;5050293;28;20064;-75
2024/03/16 12:01:42;;;;;;;11.45;2.33;;;10.90;99.90;;;;;;5050187;28;20037;-75
2024/03/16 12:04:10;;;;;;;3.47;1.20;;;10.80;99.90;;;;;;5033746;28;20076;-75
2024/03/16 12:06:36;;;;;;;6.00;1.50;;;10.90;99.90;;;;;;5050085;28;20076;-75
2024/03/16 12:09:03;;;;;;;5.93;1.27;;;10.90;99.90;;;;;;5049778;28;20056;-75
2024/03/16 12:11:29;;;;;;;6.65;1.45;;;10.90;99.90;;;;;;5049790;28;20417;-75
2024/03/16 12:14:08;;;;;;;9.18;1.60;;;10.90;99.90;;;;;;5050036;28;20501;-75
2024/03/16 12:16:39;;;;;;;10.20;1.60;;;10.80;99.90;;;;;;5033525;28;20041;-75
2024/03/16 12:19:10;;;;;;;5.93;1.30;;;10.70;99.90;;;;;;5050442;28;20408;-76
2024/03/16 12:21:47;;;;;;;5.65;1.33;;;10.70;99.90;;;;;;5055082;28;20048;-76
2024/03/16 12:24:15;;;;;;;5.80;1.45;;;10.90;99.90;;;;;;5051338;28;20037;-76
2024/03/16 12:26:45;;;;;;;4.50;1.25;;;11.20;99.90;;;;;;5053811;28;20060;-76
2024/03/16 12:29:19;;;;;;;9.13;1.25;;;11.20;99.90;;;;;;5036992;28;20496;-76
2024/03/16 12:31:53;;;;;;;14.85;2.90;;;11.30;99.90;;;;;;5053269;28;20511;-76
2024/03/16 12:34:19;;;;;;;7.13;1.58;;;11.10;99.90;;;;;;5054914;28;20547;-76
2024/03/16 12:36:44;;;;;;;5.95;2.10;;;10.90;99.90;;;;;;5053935;28;20064;-76
2024/03/16 12:39:11;;;;;;;11.65;1.33;;;10.90;99.90;;;;;;5053625;28;20044;-76
2024/03/16 12:41:57;;;;;;;10.55;1.60;;;10.90;99.90;;;;;;5053258;28;20527;-75
2024/03/16 12:44:23;;;;;;;5.95;1.17;;;11.00;99.90;;;;;;5053394;28;20532;-75
2024/03/16 12:46:50;;;;;;;4.63;1.23;;;11.10;99.90;;;;;;5053967;28;20047;-75
2024/03/16 12:49:15;;;;;;;8.18;2.50;;;11.00;99.90;;;;;;5054590;28;20497;-75